首页
METAR-TAF:

METAR-TAF

机场 :

Richard I. Bong Airport

苏必利尔, 威斯康辛州, 美国

纬度: 46-41-23N, 经度: 092-05-41W, 海拔: 205米

当前天气观测

该预报发布于16分钟前的13:35 UTC
风速7节,风向西南
温度 -18°C
湿度 84%
气压 1033 hPa
能見度: 16.1公里
天空无云

METAR: KSUW 121335Z AUTO 23007KT 10SM CLR M18/M20 A3050 RMK AO2 T11811205

时间: 07:51 (13:51 UTC)


TAF: 丢失

超过4000个机场的气象观测和天气预报(METAR&TAF报告)。

可查询的气象台以黄色和红色小点在地图上表示。

将鼠标移到小点上方,可查看气象台名称。

然后点击查看天气观测和预报。

如需切换地图:点击带黑十字的绿色按钮放大地图;点击带横线的绿色按钮缩小地图;或者点击绿色箭头查看邻近地区的地图。


METAR-TAF: